Pride Of Canterbury — MPQZ6 — position and weather

sailwx.info

Track history (hours):
 
Tides and Currents Weather Stations Pressure Air Temp Water Temp Dewpoint Dewpoint Depression Visibility Wind Speed Wind Dir Waves Ship Positions

Pride Of Canterbury

Operator: P & O Ferries

Last reported at 2017-Nov-23 00:01 UTC. Time now 2017-Nov-23 00:22 UTC.
Position N 50°58' E 001°47'.

Length 180 m; draft 5.7 m.

Type: Passenger vessel. MMSI: 232001060.

Date/timePositionNaut miles runAvg speedWind from/ knotsBaromVisibWave heightAir tempDewpointWater temp
2017-Nov-23 00:01N 50°58' E 001°47'3 5.1
2017-Nov-22 23:29N 50°58' E 001°51'0 0.0
2017-Nov-22 23:00N 50°58' E 001°51'3 6.4
2017-Nov-22 22:30N 50°58' E 001°46'816.3
2017-Nov-22 22:00N 51°00' E 001°33'816.3
2017-Nov-22 21:30N 51°05' E 001°23'3 5.1
2017-Nov-22 20:55N 51°07' E 001°20'0 0.0
2017-Nov-22 20:10N 51°07' E 001°20'0 1.1
2017-Nov-22 20:00N 51°07' E 001°20'815.2
2017-Nov-22 19:31N 51°07' E 001°32'  
2017-Nov-20 00:25N 51°07' E 001°20'0 0.5
2017-Nov-20 00:00N 51°07' E 001°20'815.4
2017-Nov-19 23:31N 51°05' E 001°32'917.9
2017-Nov-19 23:01N 50°59' E 001°42'610.9
2017-Nov-19 22:29N 50°58' E 001°51'0 0.0
2017-Nov-19 21:59N 50°58' E 001°51'2 3.3
2017-Nov-19 21:30N 50°58' E 001°48'917.2
2017-Nov-19 21:00N 50°59' E 001°35'918.6
2017-Nov-19 20:30N 51°06' E 001°24'3 5.8
2017-Nov-19 19:58N 51°07' E 001°20'0 0.0
2017-Nov-19 18:31N 51°07' E 001°20'0 0.0
2017-Nov-19 18:22N 51°07' E 001°20'0 0.0
2017-Nov-19 17:02N 51°07' E 001°20'0 0.0
2017-Nov-19 16:58N 51°07' E 001°20'0 0.1
2017-Nov-19 16:06N 51°07' E 001°20'0 0.8
2017-Nov-19 16:00N 51°07' E 001°20'815.6
2017-Nov-19 15:31N 51°04' E 001°31'918.1
2017-Nov-19 15:01N 50°59' E 001°43'5 7.0
2017-Nov-19 14:17N 50°58' E 001°51'0 0.0
2017-Nov-19 13:39N 50°58' E 001°51'1 5.5
2017-Nov-19 13:31N 50°58' E 001°50'918.4
2017-Nov-19 13:00N 51°01' E 001°36'1019.4
2017-Nov-19 12:30N 51°06' E 001°22'2 2.3
2017-Nov-19 11:29N 51°07' E 001°20'0 0.0
2017-Nov-19 10:54N 51°07' E 001°20'0 0.2
2017-Nov-19 10:20N 51°07' E 001°20'412.9
2017-Nov-19 10:00N 51°06' E 001°27'918.1
2017-Nov-19 09:30N 51°01' E 001°39'816.0
2017-Nov-19 09:00N 50°58' E 001°51'0 0.5
2017-Nov-19 08:30N 50°58' E 001°51'1 2.1
2017-Nov-19 08:01N 50°58' E 001°49'815.7
2017-Nov-19 07:30N 50°58' E 001°37'917.9
2017-Nov-19 07:01N 51°04' E 001°27'5 6.0
2017-Nov-19 06:08N 51°07' E 001°20'0 0.0
2017-Nov-19 05:45N 51°07' E 001°20'1 2.6
2017-Nov-19 05:31N 51°07' E 001°21'917.3
2017-Nov-19 05:00N 51°07' E 001°35'714.1
2017-Nov-19 04:31N 51°00' E 001°40'714.3
2017-Nov-19 04:00N 50°58' E 001°51'0 0.9
2017-Nov-19 03:30N 50°58' E 001°52'0 0.0
2017-Nov-19 02:59N 50°58' E 001°52'0 0.0
2017-Nov-19 02:29N 50°58' E 001°52'0 0.0
2017-Nov-19 02:00N 50°58' E 001°52'0 0.0
2017-Nov-19 01:30N 50°58' E 001°52'0 0.0
2017-Nov-19 00:59N 50°58' E 001°52'0 0.0
2017-Nov-19 00:31N 50°58' E 001°52'0 0.0
2017-Nov-18 23:58N 50°58' E 001°52'0 0.0
2017-Nov-18 23:28N 50°58' E 001°52'0 0.0
2017-Nov-18 23:00N 50°58' E 001°52'0 0.0
2017-Nov-18 22:27N 50°58' E 001°52'0 0.0
2017-Nov-18 21:58N 50°58' E 001°52'0 0.0
2017-Nov-18 21:30N 50°58' E 001°52'0 0.0
2017-Nov-18 20:58N 50°58' E 001°52'0 0.0
2017-Nov-18 20:30N 50°58' E 001°52'0 0.0
2017-Nov-18 20:01N 50°58' E 001°52'0 0.0
2017-Nov-18 19:30N 50°58' E 001°52'0 0.0
2017-Nov-18 19:00N 50°58' E 001°52'0 0.0
2017-Nov-18 18:30N 50°58' E 001°52'0 0.0
2017-Nov-18 18:00N 50°58' E 001°52'0 0.0
2017-Nov-18 17:30N 50°58' E 001°52'510.5
2017-Nov-18 17:00N 50°58' E 001°43'917.5
2017-Nov-18 16:30N 51°02' E 001°31'9 5.6
2017-Nov-18 14:59N 51°07' E 001°20'816.2
2017-Nov-18 14:30N 51°05' E 001°32'917.6
2017-Nov-18 14:00N 50°59' E 001°43'510.7
2017-Nov-18 13:31N 50°58' E 001°51'0 0.1
2017-Nov-18 12:54N 50°58' E 001°51'1 1.8
2017-Nov-18 12:31N 50°58' E 001°50'916.6
2017-Nov-18 11:59N 51°00' E 001°37'919.1
2017-Nov-18 11:30N 51°05' E 001°24'3 3.1
2017-Nov-18 10:23N 51°07' E 001°20'511.9
2017-Nov-18 10:00N 51°06' E 001°27'917.9
2017-Nov-18 09:30N 51°00' E 001°38'816.0
2017-Nov-18 09:00N 50°58' E 001°51'0 0.7
2017-Nov-18 08:30N 50°58' E 001°51'0 0.3
2017-Nov-18 08:00N 50°58' E 001°51'815.2
2017-Nov-18 07:30N 50°59' E 001°39'917.9
2017-Nov-18 07:01N 51°04' E 001°27'6 5.4
2017-Nov-18 05:56N 51°07' E 001°20'0 0.0
2017-Nov-18 05:22N 51°07' E 001°20'3 8.6
2017-Nov-18 05:00N 51°06' E 001°25'918.2
2017-Nov-18 04:30N 51°02' E 001°37'917.3
2017-Nov-18 04:00N 50°58' E 001°50'1 1.5
2017-Nov-18 03:28N 50°58' E 001°51'0 0.5
2017-Nov-18 02:55N 50°58' E 001°51'512.9
2017-Nov-18 02:31N 50°58' E 001°42'917.9
2017-Nov-18 02:00N 51°03' E 001°30'815.3
2017-Nov-18 01:30N 51°07' E 001°20'0 0.0
2017-Nov-18 01:00N 51°07' E 001°20'0 0.3
2017-Nov-18 00:29N 51°07' E 001°20'715.1
2017-Nov-18 00:00N 51°04' E 001°31'917.7
2017-Nov-17 23:31N 50°59' E 001°42'6 8.3
2017-Nov-17 22:50N 50°58' E 001°51'0 0.0
2017-Nov-17 22:30N 50°58' E 001°51'1 2.0
2017-Nov-17 22:00N 50°58' E 001°50'1020.2
2017-Nov-17 21:29N 50°58' E 001°33'714.6
2017-Nov-17 21:00N 51°03' E 001°25'510.7
2017-Nov-17 20:30N 51°07' E 001°20'0 0.0
2017-Nov-17 20:00N 51°07' E 001°20'4 7.5
2017-Nov-17 19:30N 51°06' E 001°25'918.1
2017-Nov-17 19:00N 51°02' E 001°38'817.0
2017-Nov-17 18:30N 50°58' E 001°51'0 0.6
2017-Nov-17 18:00N 50°58' E 001°51'0 0.3
2017-Nov-17 17:26N 50°58' E 001°51'614.7
2017-Nov-17 17:00N 50°58' E 001°41'917.1
2017-Nov-17 16:30N 51°03' E 001°29'7 7.2
2017-Nov-17 15:29N 51°07' E 001°20'1 1.1
2017-Nov-17 15:00N 51°07' E 001°21'816.2
2017-Nov-17 14:31N 51°05' E 001°33'917.3
2017-Nov-17 14:00N 50°59' E 001°43'5 9.8
2017-Nov-17 13:30N 50°58' E 001°51'0 0.0
2017-Nov-17 13:00N 50°58' E 001°51'2 4.3
2017-Nov-17 12:31N 50°58' E 001°48'1317.1
2017-Nov-17 11:46N 51°03' E 001°29'518.5
2017-Nov-17 11:30N 51°06' E 001°23'3 2.8
2017-Nov-17 10:36N 51°07' E 001°20'0 0.0
2017-Nov-17 10:29N 51°07' E 001°20'4 8.0
2017-Nov-17 10:00N 51°07' E 001°26'816.6
2017-Nov-17 09:30N 51°02' E 001°37'816.1
2017-Nov-17 09:00N 50°58' E 001°48'2 3.6
2017-Nov-17 08:30N 50°58' E 001°51'0 0.0
2017-Nov-17 08:00N 50°58' E 001°51'613.1
2017-Nov-17 07:30N 50°58' E 001°41'917.7
2017-Nov-17 07:01N 51°03' E 001°29'7 5.8
2017-Nov-17 05:46N 51°07' E 001°20'0 0.6
2017-Nov-17 05:29N 51°07' E 001°20'713.6
2017-Nov-17 05:01N 51°05' E 001°30'918.7
2017-Nov-17 04:30N 50°59' E 001°42'611.4
2017-Nov-17 03:57N 50°58' E 001°52'0 0.0
2017-Nov-17 03:30N 50°58' E 001°52'0 0.0
2017-Nov-17 02:59N 50°58' E 001°52'0 0.2
2017-Nov-17 02:30N 50°58' E 001°52'714.1
2017-Nov-17 02:00N 50°58' E 001°40'918.2
2017-Nov-17 01:30N 51°02' E 001°27'712.9
2017-Nov-17 00:57N 51°07' E 001°20'0 0.0
2017-Nov-17 00:30N 51°07' E 001°20'1 2.7
2017-Nov-17 00:00N 51°07' E 001°22'917.2
2017-Nov-16 23:31N 51°03' E 001°34'917.3
2017-Nov-16 23:01N 50°58' E 001°45'4 4.0
2017-Nov-16 22:08N 50°58' E 001°51'0 0.9
2017-Nov-16 21:50N 50°58' E 001°51'617.8
2017-Nov-16 21:30N 50°58' E 001°41'918.9
2017-Nov-16 21:00N 51°03' E 001°29'712.9
2017-Nov-16 20:28N 51°07' E 001°20'0 0.0
2017-Nov-16 19:58N 51°07' E 001°20'2 5.0
2017-Nov-16 19:31N 51°07' E 001°24'918.6
2017-Nov-16 19:01N 51°02' E 001°36'917.9
2017-Nov-16 18:31N 50°58' E 001°49'1 2.5
2017-Nov-16 18:00N 50°58' E 001°51'0 0.0
2017-Nov-16 17:30N 50°58' E 001°51'4 7.5
2017-Nov-16 17:00N 50°58' E 001°45'917.4
2017-Nov-16 16:30N 51°02' E 001°32'918.0
2017-Nov-16 16:00N 51°07' E 001°21'1 0.6
2017-Nov-16 15:03N 51°07' E 001°20'0 2.6
2017-Nov-16 14:57N 51°07' E 001°20'714.9
2017-Nov-16 14:30N 51°05' E 001°30'918.2
2017-Nov-16 14:00N 50°59' E 001°42'610.9
2017-Nov-16 13:27N 50°58' E 001°51'0 0.0
2017-Nov-16 13:00N 50°58' E 001°51'2 3.1
2017-Nov-16 12:30N 50°58' E 001°49'1018.7
2017-Nov-16 11:59N 51°01' E 001°34'918.9
2017-Nov-16 11:31N 51°07' E 001°22'2 2.7
2017-Nov-16 10:56N 51°07' E 001°20'0 0.4
2017-Nov-16 10:25N 51°07' E 001°20'613.4
2017-Nov-16 10:00N 51°08' E 001°29'816.2
2017-Nov-16 09:30N 51°02' E 001°38'715.0
2017-Nov-16 09:01N 50°58' E 001°48'2 3.4
2017-Nov-16 08:30N 50°58' E 001°51'0 0.0
2017-Nov-16 08:00N 50°58' E 001°51'611.8
2017-Nov-16 07:31N 50°58' E 001°42'918.1
2017-Nov-16 07:00N 51°03' E 001°29'711.9
2017-Nov-16 06:24N 51°07' E 001°20'0 0.0
2017-Nov-16 05:25N 51°07' E 001°20'2 5.1
2017-Nov-16 05:00N 51°07' E 001°23'917.1
2017-Nov-16 04:30N 51°02' E 001°35'816.3
2017-Nov-16 04:00N 50°58' E 001°46'3 6.1
2017-Nov-16 03:29N 50°58' E 001°51'0 0.0
2017-Nov-16 03:00N 50°58' E 001°51'0 0.3
2017-Nov-16 02:30N 50°58' E 001°51'815.2
2017-Nov-16 02:00N 50°60' E 001°39'919.0
2017-Nov-16 01:30N 51°05' E 001°26'5 9.2
2017-Nov-16 00:59N 51°07' E 001°20'0 0.0
2017-Nov-16 00:29N 51°07' E 001°20'4 9.0
2017-Nov-16 00:00N 51°06' E 001°27'917.7
2017-Nov-15 23:30N 51°02' E 001°39'815.5
2017-Nov-15 23:01N 50°58' E 001°50'1 1.3
2017-Nov-15 22:23N 50°58' E 001°51'0 0.5
2017-Nov-15 21:56N 50°58' E 001°51'818.0
2017-Nov-15 21:30N 50°59' E 001°39'918.5
2017-Nov-15 21:01N 51°04' E 001°27'510.3
2017-Nov-15 20:29N 51°07' E 001°20'0 0.0
2017-Nov-15 20:00N 51°07' E 001°20'3 5.8
2017-Nov-15 19:31N 51°07' E 001°24'918.4
2017-Nov-15 19:00N 51°02' E 001°37'917.3
2017-Nov-15 18:30N 50°58' E 001°50'1 1.8
2017-Nov-15 17:59N 50°58' E 001°51'0 0.1
2017-Nov-15 17:29N 50°58' E 001°51'714.0
2017-Nov-15 17:00N 50°58' E 001°40'917.1
2017-Nov-15 16:30N 51°02' E 001°28'7 5.8
2017-Nov-15 15:14N 51°07' E 001°20'0 1.2
2017-Nov-15 15:00N 51°07' E 001°20'4 8.9
2017-Nov-15 14:31N 51°06' E 001°27'918.6
2017-Nov-15 14:00N 51°01' E 001°39'815.6
2017-Nov-15 13:30N 50°58' E 001°51'0 0.4
2017-Nov-15 12:35N 50°58' E 001°50'114.3
2017-Nov-15 12:30N 50°58' E 001°49'917.8
2017-Nov-15 12:01N 51°01' E 001°35'918.9
2017-Nov-15 11:31N 51°06' E 001°23'2 2.6
2017-Nov-15 10:44N 51°07' E 001°20'0 0.0
2017-Nov-15 10:26N 51°07' E 001°20'510.9
2017-Nov-15 10:00N 51°06' E 001°27'918.1
2017-Nov-15 09:30N 51°01' E 001°39'815.2
2017-Nov-15 09:00N 50°58' E 001°50'0 0.7
2017-Nov-15 08:26N 50°58' E 001°51'1 1.1
2017-Nov-15 07:57N 50°58' E 001°50'919.0
2017-Nov-15 07:30N 50°58' E 001°37'714.5
2017-Nov-15 07:00N 51°02' E 001°27'710.4
2017-Nov-15 06:18N 51°07' E 001°20'0 0.0
2017-Nov-15 06:00N 51°07' E 001°20'0 0.0
2017-Nov-15 05:29N 51°07' E 001°20'4 7.6
2017-Nov-15 05:00N 51°06' E 001°26'713.9
2017-Nov-15 04:30N 51°02' E 001°34'714.0
2017-Nov-15 04:00N 50°58' E 001°44'4 8.3
2017-Nov-15 03:28N 50°58' E 001°51'0 0.0
2017-Nov-15 03:00N 50°58' E 001°51'2 4.3
2017-Nov-15 02:31N 50°58' E 001°48'816.2
2017-Nov-15 02:01N 50°60' E 001°35'918.4
2017-Nov-15 01:30N 51°05' E 001°23'3 4.7
2017-Nov-15 00:52N 51°07' E 001°20'0 0.4
2017-Nov-15 00:27N 51°07' E 001°20'715.2
2017-Nov-15 00:00N 51°06' E 001°31'917.3
2017-Nov-14 23:30N 51°00' E 001°41'712.9
2017-Nov-14 23:00N 50°58' E 001°51'0 0.4
2017-Nov-14 22:07N 50°58' E 001°50'112.0
2017-Nov-14 22:00N 50°58' E 001°48'1115.9
2017-Nov-14 21:20N 51°02' E 001°33'618.8
2017-Nov-14 21:01N 51°06' E 001°25'4 4.7
2017-Nov-14 20:16N 51°07' E 001°20'0 0.1
2017-Nov-14 19:55N 51°07' E 001°20'410.9
2017-Nov-14 19:30N 51°06' E 001°27'918.1
2017-Nov-14 19:00N 51°01' E 001°39'815.7
2017-Nov-14 18:31N 50°58' E 001°51'0 0.7
2017-Nov-14 17:59N 50°58' E 001°51'0 0.0
2017-Nov-14 17:30N 50°58' E 001°51'713.3
2017-Nov-14 17:00N 50°58' E 001°40'918.1
2017-Nov-14 16:31N 51°03' E 001°28'7 5.0
2017-Nov-14 15:10N 51°07' E 001°20'0 0.9
2017-Nov-14 15:00N 51°07' E 001°20'816.8
2017-Nov-14 14:31N 51°05' E 001°33'917.4
2017-Nov-14 14:00N 50°59' E 001°43'5 9.5
2017-Nov-14 13:27N 50°58' E 001°51'0 0.0
2017-Nov-14 13:00N 50°58' E 001°51'2 4.9
2017-Nov-14 12:30N 50°58' E 001°47'917.5
2017-Nov-14 11:58N 50°60' E 001°32'818.4
2017-Nov-14 11:30N 51°06' E 001°23'2 2.5
2017-Nov-14 10:31N 51°07' E 001°20'0 1.8
2017-Nov-14 10:29N 51°07' E 001°20'613.0
2017-Nov-14 10:00N 51°06' E 001°30'816.7
2017-Nov-14 09:31N 51°01' E 001°40'714.2
2017-Nov-14 09:00N 50°58' E 001°51'0 0.6
2017-Nov-14 08:26N 50°58' E 001°51'0 0.2
2017-Nov-14 07:58N 50°58' E 001°51'817.2
2017-Nov-14 07:30N 50°59' E 001°39'918.0
2017-Nov-14 07:00N 51°04' E 001°27'610.1
2017-Nov-14 06:28N 51°07' E 001°20'0 0.0
2017-Nov-14 05:58N 51°07' E 001°20'1 1.2
2017-Nov-14 05:30N 51°07' E 001°21'917.7
2017-Nov-14 05:01N 51°03' E 001°33'918.2
2017-Nov-14 04:31N 50°58' E 001°45'4 7.6
2017-Nov-14 03:59N 50°58' E 001°52'0 0.0
2017-Nov-14 03:30N 50°58' E 001°52'0 0.3
2017-Nov-14 03:00N 50°58' E 001°51'714.0
2017-Nov-14 02:30N 50°59' E 001°40'917.9
2017-Nov-14 02:00N 51°02' E 001°27'713.6
2017-Nov-14 01:30N 51°07' E 001°20'0 0.0
2017-Nov-14 00:52N 51°07' E 001°20'0 0.7
2017-Nov-14 00:30N 51°07' E 001°20'816.6
2017-Nov-14 00:00N 51°04' E 001°32'917.5
2017-Nov-13 23:30N 50°59' E 001°44'5 6.2
2017-Nov-13 22:47N 50°58' E 001°51'0 0.0
2017-Nov-13 22:28N 50°58' E 001°51'2 5.4
2017-Nov-13 22:00N 50°58' E 001°47'19 1.0
2017-Nov-13 01:35N 51°07' E 001°20'0 0.0
2017-Nov-13 01:30N 51°07' E 001°20'0 0.0
2017-Nov-13 00:54N 51°07' E 001°20'0 0.0
2017-Nov-13 00:25N 51°07' E 001°20'  
Track history (hours):
 
Tides and Currents Weather Stations Pressure Air Temp Water Temp Dewpoint Dewpoint Depression Visibility Wind Speed Wind Dir Waves Ship Positions

Pride Of Canterbury

Operator: P & O Ferries

Last reported at 2017-Nov-23 00:01 UTC. Time now 2017-Nov-23 00:22 UTC.
Position N 50°58' E 001°47'.

Length 180 m; draft 5.7 m.

Type: Passenger vessel. MMSI: 232001060.

Date/timePositionNaut miles runAvg speedWind from/ knotsBaromVisibWave heightAir tempDewpointWater temp
2017-Nov-23 00:01N 50°58' E 001°47'3 5.1
2017-Nov-22 23:29N 50°58' E 001°51'0 0.0
2017-Nov-22 23:00N 50°58' E 001°51'3 6.4
2017-Nov-22 22:30N 50°58' E 001°46'816.3
2017-Nov-22 22:00N 51°00' E 001°33'816.3
2017-Nov-22 21:30N 51°05' E 001°23'3 5.1
2017-Nov-22 20:55N 51°07' E 001°20'0 0.0
2017-Nov-22 20:10N 51°07' E 001°20'0 1.1
2017-Nov-22 20:00N 51°07' E 001°20'815.2
2017-Nov-22 19:31N 51°07' E 001°32'  
2017-Nov-20 00:25N 51°07' E 001°20'0 0.5
2017-Nov-20 00:00N 51°07' E 001°20'815.4
2017-Nov-19 23:31N 51°05' E 001°32'917.9
2017-Nov-19 23:01N 50°59' E 001°42'610.9
2017-Nov-19 22:29N 50°58' E 001°51'0 0.0
2017-Nov-19 21:59N 50°58' E 001°51'2 3.3
2017-Nov-19 21:30N 50°58' E 001°48'917.2
2017-Nov-19 21:00N 50°59' E 001°35'918.6
2017-Nov-19 20:30N 51°06' E 001°24'3 5.8
2017-Nov-19 19:58N 51°07' E 001°20'0 0.0
2017-Nov-19 18:31N 51°07' E 001°20'0 0.0
2017-Nov-19 18:22N 51°07' E 001°20'0 0.0
2017-Nov-19 17:02N 51°07' E 001°20'0 0.0
2017-Nov-19 16:58N 51°07' E 001°20'0 0.1
2017-Nov-19 16:06N 51°07' E 001°20'0 0.8
2017-Nov-19 16:00N 51°07' E 001°20'815.6
2017-Nov-19 15:31N 51°04' E 001°31'918.1
2017-Nov-19 15:01N 50°59' E 001°43'5 7.0
2017-Nov-19 14:17N 50°58' E 001°51'0 0.0
2017-Nov-19 13:39N 50°58' E 001°51'1 5.5
2017-Nov-19 13:31N 50°58' E 001°50'918.4
2017-Nov-19 13:00N 51°01' E 001°36'1019.4
2017-Nov-19 12:30N 51°06' E 001°22'2 2.3
2017-Nov-19 11:29N 51°07' E 001°20'0 0.0
2017-Nov-19 10:54N 51°07' E 001°20'0 0.2
2017-Nov-19 10:20N 51°07' E 001°20'412.9
2017-Nov-19 10:00N 51°06' E 001°27'918.1
2017-Nov-19 09:30N 51°01' E 001°39'816.0
2017-Nov-19 09:00N 50°58' E 001°51'0 0.5
2017-Nov-19 08:30N 50°58' E 001°51'1 2.1
2017-Nov-19 08:01N 50°58' E 001°49'815.7
2017-Nov-19 07:30N 50°58' E 001°37'917.9
2017-Nov-19 07:01N 51°04' E 001°27'5 6.0
2017-Nov-19 06:08N 51°07' E 001°20'0 0.0
2017-Nov-19 05:45N 51°07' E 001°20'1 2.6
2017-Nov-19 05:31N 51°07' E 001°21'917.3
2017-Nov-19 05:00N 51°07' E 001°35'714.1
2017-Nov-19 04:31N 51°00' E 001°40'714.3
2017-Nov-19 04:00N 50°58' E 001°51'0 0.9
2017-Nov-19 03:30N 50°58' E 001°52'0 0.0
2017-Nov-19 02:59N 50°58' E 001°52'0 0.0
2017-Nov-19 02:29N 50°58' E 001°52'0 0.0
2017-Nov-19 02:00N 50°58' E 001°52'0 0.0
2017-Nov-19 01:30N 50°58' E 001°52'0 0.0
2017-Nov-19 00:59N 50°58' E 001°52'0 0.0
2017-Nov-19 00:31N 50°58' E 001°52'0 0.0
2017-Nov-18 23:58N 50°58' E 001°52'0 0.0
2017-Nov-18 23:28N 50°58' E 001°52'0 0.0
2017-Nov-18 23:00N 50°58' E 001°52'0 0.0
2017-Nov-18 22:27N 50°58' E 001°52'0 0.0
2017-Nov-18 21:58N 50°58' E 001°52'0 0.0
2017-Nov-18 21:30N 50°58' E 001°52'0 0.0
2017-Nov-18 20:58N 50°58' E 001°52'0 0.0
2017-Nov-18 20:30N 50°58' E 001°52'0 0.0
2017-Nov-18 20:01N 50°58' E 001°52'0 0.0
2017-Nov-18 19:30N 50°58' E 001°52'0 0.0
2017-Nov-18 19:00N 50°58' E 001°52'0 0.0
2017-Nov-18 18:30N 50°58' E 001°52'0 0.0
2017-Nov-18 18:00N 50°58' E 001°52'0 0.0
2017-Nov-18 17:30N 50°58' E 001°52'510.5
2017-Nov-18 17:00N 50°58' E 001°43'917.5
2017-Nov-18 16:30N 51°02' E 001°31'9 5.6
2017-Nov-18 14:59N 51°07' E 001°20'816.2
2017-Nov-18 14:30N 51°05' E 001°32'917.6
2017-Nov-18 14:00N 50°59' E 001°43'510.7
2017-Nov-18 13:31N 50°58' E 001°51'0 0.1
2017-Nov-18 12:54N 50°58' E 001°51'1 1.8
2017-Nov-18 12:31N 50°58' E 001°50'916.6
2017-Nov-18 11:59N 51°00' E 001°37'919.1
2017-Nov-18 11:30N 51°05' E 001°24'3 3.1
2017-Nov-18 10:23N 51°07' E 001°20'511.9
2017-Nov-18 10:00N 51°06' E 001°27'917.9
2017-Nov-18 09:30N 51°00' E 001°38'816.0
2017-Nov-18 09:00N 50°58' E 001°51'0 0.7
2017-Nov-18 08:30N 50°58' E 001°51'0 0.3
2017-Nov-18 08:00N 50°58' E 001°51'815.2
2017-Nov-18 07:30N 50°59' E 001°39'917.9
2017-Nov-18 07:01N 51°04' E 001°27'6 5.4
2017-Nov-18 05:56N 51°07' E 001°20'0 0.0
2017-Nov-18 05:22N 51°07' E 001°20'3 8.6
2017-Nov-18 05:00N 51°06' E 001°25'918.2
2017-Nov-18 04:30N 51°02' E 001°37'917.3
2017-Nov-18 04:00N 50°58' E 001°50'1 1.5
2017-Nov-18 03:28N 50°58' E 001°51'0 0.5
2017-Nov-18 02:55N 50°58' E 001°51'512.9
2017-Nov-18 02:31N 50°58' E 001°42'917.9
2017-Nov-18 02:00N 51°03' E 001°30'815.3
2017-Nov-18 01:30N 51°07' E 001°20'0 0.0
2017-Nov-18 01:00N 51°07' E 001°20'0 0.3
2017-Nov-18 00:29N 51°07' E 001°20'715.1
2017-Nov-18 00:00N 51°04' E 001°31'917.7
2017-Nov-17 23:31N 50°59' E 001°42'6 8.3
2017-Nov-17 22:50N 50°58' E 001°51'0 0.0
2017-Nov-17 22:30N 50°58' E 001°51'1 2.0
2017-Nov-17 22:00N 50°58' E 001°50'1020.2
2017-Nov-17 21:29N 50°58' E 001°33'714.6
2017-Nov-17 21:00N 51°03' E 001°25'510.7
2017-Nov-17 20:30N 51°07' E 001°20'0 0.0
2017-Nov-17 20:00N 51°07' E 001°20'4 7.5
2017-Nov-17 19:30N 51°06' E 001°25'918.1
2017-Nov-17 19:00N 51°02' E 001°38'817.0
2017-Nov-17 18:30N 50°58' E 001°51'0 0.6
2017-Nov-17 18:00N 50°58' E 001°51'0 0.3
2017-Nov-17 17:26N 50°58' E 001°51'614.7
2017-Nov-17 17:00N 50°58' E 001°41'917.1
2017-Nov-17 16:30N 51°03' E 001°29'7 7.2
2017-Nov-17 15:29N 51°07' E 001°20'1 1.1
2017-Nov-17 15:00N 51°07' E 001°21'816.2
2017-Nov-17 14:31N 51°05' E 001°33'917.3
2017-Nov-17 14:00N 50°59' E 001°43'5 9.8
2017-Nov-17 13:30N 50°58' E 001°51'0 0.0
2017-Nov-17 13:00N 50°58' E 001°51'2 4.3
2017-Nov-17 12:31N 50°58' E 001°48'1317.1
2017-Nov-17 11:46N 51°03' E 001°29'518.5
2017-Nov-17 11:30N 51°06' E 001°23'3 2.8
2017-Nov-17 10:36N 51°07' E 001°20'0 0.0
2017-Nov-17 10:29N 51°07' E 001°20'4 8.0
2017-Nov-17 10:00N 51°07' E 001°26'816.6
2017-Nov-17 09:30N 51°02' E 001°37'816.1
2017-Nov-17 09:00N 50°58' E 001°48'2 3.6
2017-Nov-17 08:30N 50°58' E 001°51'0 0.0
2017-Nov-17 08:00N 50°58' E 001°51'613.1
2017-Nov-17 07:30N 50°58' E 001°41'917.7
2017-Nov-17 07:01N 51°03' E 001°29'7 5.8
2017-Nov-17 05:46N 51°07' E 001°20'0 0.6
2017-Nov-17 05:29N 51°07' E 001°20'713.6
2017-Nov-17 05:01N 51°05' E 001°30'918.7
2017-Nov-17 04:30N 50°59' E 001°42'611.4
2017-Nov-17 03:57N 50°58' E 001°52'0 0.0
2017-Nov-17 03:30N 50°58' E 001°52'0 0.0
2017-Nov-17 02:59N 50°58' E 001°52'0 0.2
2017-Nov-17 02:30N 50°58' E 001°52'714.1
2017-Nov-17 02:00N 50°58' E 001°40'918.2
2017-Nov-17 01:30N 51°02' E 001°27'712.9
2017-Nov-17 00:57N 51°07' E 001°20'0 0.0
2017-Nov-17 00:30N 51°07' E 001°20'1 2.7
2017-Nov-17 00:00N 51°07' E 001°22'917.2
2017-Nov-16 23:31N 51°03' E 001°34'917.3
2017-Nov-16 23:01N 50°58' E 001°45'4 4.0
2017-Nov-16 22:08N 50°58' E 001°51'0 0.9
2017-Nov-16 21:50N 50°58' E 001°51'617.8
2017-Nov-16 21:30N 50°58' E 001°41'918.9
2017-Nov-16 21:00N 51°03' E 001°29'712.9
2017-Nov-16 20:28N 51°07' E 001°20'0 0.0
2017-Nov-16 19:58N 51°07' E 001°20'2 5.0
2017-Nov-16 19:31N 51°07' E 001°24'918.6
2017-Nov-16 19:01N 51°02' E 001°36'917.9
2017-Nov-16 18:31N 50°58' E 001°49'1 2.5
2017-Nov-16 18:00N 50°58' E 001°51'0 0.0
2017-Nov-16 17:30N 50°58' E 001°51'4 7.5
2017-Nov-16 17:00N 50°58' E 001°45'917.4
2017-Nov-16 16:30N 51°02' E 001°32'918.0
2017-Nov-16 16:00N 51°07' E 001°21'1 0.6
2017-Nov-16 15:03N 51°07' E 001°20'0 2.6
2017-Nov-16 14:57N 51°07' E 001°20'714.9
2017-Nov-16 14:30N 51°05' E 001°30'918.2
2017-Nov-16 14:00N 50°59' E 001°42'610.9
2017-Nov-16 13:27N 50°58' E 001°51'0 0.0
2017-Nov-16 13:00N 50°58' E 001°51'2 3.1
2017-Nov-16 12:30N 50°58' E 001°49'1018.7
2017-Nov-16 11:59N 51°01' E 001°34'918.9
2017-Nov-16 11:31N 51°07' E 001°22'2 2.7
2017-Nov-16 10:56N 51°07' E 001°20'0 0.4
2017-Nov-16 10:25N 51°07' E 001°20'613.4
2017-Nov-16 10:00N 51°08' E 001°29'816.2
2017-Nov-16 09:30N 51°02' E 001°38'715.0
2017-Nov-16 09:01N 50°58' E 001°48'2 3.4
2017-Nov-16 08:30N 50°58' E 001°51'0 0.0
2017-Nov-16 08:00N 50°58' E 001°51'611.8
2017-Nov-16 07:31N 50°58' E 001°42'918.1
2017-Nov-16 07:00N 51°03' E 001°29'711.9
2017-Nov-16 06:24N 51°07' E 001°20'0 0.0
2017-Nov-16 05:25N 51°07' E 001°20'2 5.1
2017-Nov-16 05:00N 51°07' E 001°23'917.1
2017-Nov-16 04:30N 51°02' E 001°35'816.3
2017-Nov-16 04:00N 50°58' E 001°46'3 6.1
2017-Nov-16 03:29N 50°58' E 001°51'0 0.0
2017-Nov-16 03:00N 50°58' E 001°51'0 0.3
2017-Nov-16 02:30N 50°58' E 001°51'815.2
2017-Nov-16 02:00N 50°60' E 001°39'919.0
2017-Nov-16 01:30N 51°05' E 001°26'5 9.2
2017-Nov-16 00:59N 51°07' E 001°20'0 0.0
2017-Nov-16 00:29N 51°07' E 001°20'4 9.0
2017-Nov-16 00:00N 51°06' E 001°27'917.7
2017-Nov-15 23:30N 51°02' E 001°39'815.5
2017-Nov-15 23:01N 50°58' E 001°50'1 1.3
2017-Nov-15 22:23N 50°58' E 001°51'0 0.5
2017-Nov-15 21:56N 50°58' E 001°51'818.0
2017-Nov-15 21:30N 50°59' E 001°39'918.5
2017-Nov-15 21:01N 51°04' E 001°27'510.3
2017-Nov-15 20:29N 51°07' E 001°20'0 0.0
2017-Nov-15 20:00N 51°07' E 001°20'3 5.8
2017-Nov-15 19:31N 51°07' E 001°24'918.4
2017-Nov-15 19:00N 51°02' E 001°37'917.3
2017-Nov-15 18:30N 50°58' E 001°50'1 1.8
2017-Nov-15 17:59N 50°58' E 001°51'0 0.1
2017-Nov-15 17:29N 50°58' E 001°51'714.0
2017-Nov-15 17:00N 50°58' E 001°40'917.1
2017-Nov-15 16:30N 51°02' E 001°28'7 5.8
2017-Nov-15 15:14N 51°07' E 001°20'0 1.2
2017-Nov-15 15:00N 51°07' E 001°20'4 8.9
2017-Nov-15 14:31N 51°06' E 001°27'918.6
2017-Nov-15 14:00N 51°01' E 001°39'815.6
2017-Nov-15 13:30N 50°58' E 001°51'0 0.4
2017-Nov-15 12:35N 50°58' E 001°50'114.3
2017-Nov-15 12:30N 50°58' E 001°49'917.8
2017-Nov-15 12:01N 51°01' E 001°35'918.9
2017-Nov-15 11:31N 51°06' E 001°23'2 2.6
2017-Nov-15 10:44N 51°07' E 001°20'0 0.0
2017-Nov-15 10:26N 51°07' E 001°20'510.9
2017-Nov-15 10:00N 51°06' E 001°27'918.1
2017-Nov-15 09:30N 51°01' E 001°39'815.2
2017-Nov-15 09:00N 50°58' E 001°50'0 0.7
2017-Nov-15 08:26N 50°58' E 001°51'1 1.1
2017-Nov-15 07:57N 50°58' E 001°50'919.0
2017-Nov-15 07:30N 50°58' E 001°37'714.5
2017-Nov-15 07:00N 51°02' E 001°27'710.4
2017-Nov-15 06:18N 51°07' E 001°20'0 0.0
2017-Nov-15 06:00N 51°07' E 001°20'0 0.0
2017-Nov-15 05:29N 51°07' E 001°20'4 7.6
2017-Nov-15 05:00N 51°06' E 001°26'713.9
2017-Nov-15 04:30N 51°02' E 001°34'714.0
2017-Nov-15 04:00N 50°58' E 001°44'4 8.3
2017-Nov-15 03:28N 50°58' E 001°51'0 0.0
2017-Nov-15 03:00N 50°58' E 001°51'2 4.3
2017-Nov-15 02:31N 50°58' E 001°48'816.2
2017-Nov-15 02:01N 50°60' E 001°35'918.4
2017-Nov-15 01:30N 51°05' E 001°23'3 4.7
2017-Nov-15 00:52N 51°07' E 001°20'0 0.4
2017-Nov-15 00:27N 51°07' E 001°20'715.2
2017-Nov-15 00:00N 51°06' E 001°31'917.3
2017-Nov-14 23:30N 51°00' E 001°41'712.9
2017-Nov-14 23:00N 50°58' E 001°51'0 0.4
2017-Nov-14 22:07N 50°58' E 001°50'112.0
2017-Nov-14 22:00N 50°58' E 001°48'1115.9
2017-Nov-14 21:20N 51°02' E 001°33'618.8
2017-Nov-14 21:01N 51°06' E 001°25'4 4.7
2017-Nov-14 20:16N 51°07' E 001°20'0 0.1
2017-Nov-14 19:55N 51°07' E 001°20'410.9
2017-Nov-14 19:30N 51°06' E 001°27'918.1
2017-Nov-14 19:00N 51°01' E 001°39'815.7
2017-Nov-14 18:31N 50°58' E 001°51'0 0.7
2017-Nov-14 17:59N 50°58' E 001°51'0 0.0
2017-Nov-14 17:30N 50°58' E 001°51'713.3
2017-Nov-14 17:00N 50°58' E 001°40'918.1
2017-Nov-14 16:31N 51°03' E 001°28'7 5.0
2017-Nov-14 15:10N 51°07' E 001°20'0 0.9
2017-Nov-14 15:00N 51°07' E 001°20'816.8
2017-Nov-14 14:31N 51°05' E 001°33'917.4
2017-Nov-14 14:00N 50°59' E 001°43'5 9.5
2017-Nov-14 13:27N 50°58' E 001°51'0 0.0
2017-Nov-14 13:00N 50°58' E 001°51'2 4.9
2017-Nov-14 12:30N 50°58' E 001°47'917.5
2017-Nov-14 11:58N 50°60' E 001°32'818.4
2017-Nov-14 11:30N 51°06' E 001°23'2 2.5
2017-Nov-14 10:31N 51°07' E 001°20'0 1.8
2017-Nov-14 10:29N 51°07' E 001°20'613.0
2017-Nov-14 10:00N 51°06' E 001°30'816.7
2017-Nov-14 09:31N 51°01' E 001°40'714.2
2017-Nov-14 09:00N 50°58' E 001°51'0 0.6
2017-Nov-14 08:26N 50°58' E 001°51'0 0.2
2017-Nov-14 07:58N 50°58' E 001°51'817.2
2017-Nov-14 07:30N 50°59' E 001°39'918.0
2017-Nov-14 07:00N 51°04' E 001°27'610.1
2017-Nov-14 06:28N 51°07' E 001°20'0 0.0
2017-Nov-14 05:58N 51°07' E 001°20'1 1.2
2017-Nov-14 05:30N 51°07' E 001°21'917.7
2017-Nov-14 05:01N 51°03' E 001°33'918.2
2017-Nov-14 04:31N 50°58' E 001°45'4 7.6
2017-Nov-14 03:59N 50°58' E 001°52'0 0.0
2017-Nov-14 03:30N 50°58' E 001°52'0 0.3
2017-Nov-14 03:00N 50°58' E 001°51'714.0
2017-Nov-14 02:30N 50°59' E 001°40'917.9
2017-Nov-14 02:00N 51°02' E 001°27'713.6
2017-Nov-14 01:30N 51°07' E 001°20'0 0.0
2017-Nov-14 00:52N 51°07' E 001°20'0 0.7
2017-Nov-14 00:30N 51°07' E 001°20'816.6
2017-Nov-14 00:00N 51°04' E 001°32'917.5
2017-Nov-13 23:30N 50°59' E 001°44'5 6.2
2017-Nov-13 22:47N 50°58' E 001°51'0 0.0
2017-Nov-13 22:28N 50°58' E 001°51'2 5.4
2017-Nov-13 22:00N 50°58' E 001°47'19 1.0
2017-Nov-13 01:35N 51°07' E 001°20'0 0.0
2017-Nov-13 01:30N 51°07' E 001°20'0 0.0
2017-Nov-13 00:54N 51°07' E 001°20'0 0.0
2017-Nov-13 00:25N 51°07' E 001°20'  

Dump ship's entire track history